sensor_id;sensor_type;location;lat;lon;timestamp;P1;durP1;ratioP1;P2;durP2;ratioP2
20611;SDS011;10465;42.686;23.364;2023-03-07T00:00:58;14.93;;;10.50;;
20611;SDS011;10465;42.686;23.364;2023-03-07T00:03:24;16.38;;;10.45;;
20611;SDS011;10465;42.686;23.364;2023-03-07T00:05:58;17.60;;;9.57;;
20611;SDS011;10465;42.686;23.364;2023-03-07T00:08:24;15.30;;;8.35;;
20611;SDS011;10465;42.686;23.364;2023-03-07T00:10:50;12.98;;;7.95;;
20611;SDS011;10465;42.686;23.364;2023-03-07T00:13:15;15.85;;;9.45;;
20611;SDS011;10465;42.686;23.364;2023-03-07T00:15:41;18.50;;;11.07;;
20611;SDS011;10465;42.686;23.364;2023-03-07T00:18:06;21.60;;;11.88;;
20611;SDS011;10465;42.686;23.364;2023-03-07T00:20:32;18.85;;;11.40;;
20611;SDS011;10465;42.686;23.364;2023-03-07T00:22:57;21.35;;;11.18;;
20611;SDS011;10465;42.686;23.364;2023-03-07T00:25:22;21.50;;;11.52;;
20611;SDS011;10465;42.686;23.364;2023-03-07T00:27:48;18.13;;;11.10;;
20611;SDS011;10465;42.686;23.364;2023-03-07T00:30:13;17.77;;;11.27;;
20611;SDS011;10465;42.686;23.364;2023-03-07T00:32:39;17.08;;;11.27;;
20611;SDS011;10465;42.686;23.364;2023-03-07T00:35:04;20.67;;;11.48;;
20611;SDS011;10465;42.686;23.364;2023-03-07T00:37:30;16.92;;;10.55;;
20611;SDS011;10465;42.686;23.364;2023-03-07T00:39:56;15.45;;;9.55;;
20611;SDS011;10465;42.686;23.364;2023-03-07T00:42:21;15.02;;;9.60;;
20611;SDS011;10465;42.686;23.364;2023-03-07T00:44:46;13.80;;;9.50;;
20611;SDS011;10465;42.686;23.364;2023-03-07T00:47:12;16.80;;;9.85;;
20611;SDS011;10465;42.686;23.364;2023-03-07T00:49:37;15.73;;;9.43;;
20611;SDS011;10465;42.686;23.364;2023-03-07T00:52:03;17.85;;;9.40;;
20611;SDS011;10465;42.686;23.364;2023-03-07T00:54:28;14.40;;;9.55;;
20611;SDS011;10465;42.686;23.364;2023-03-07T00:56:54;17.10;;;10.93;;
20611;SDS011;10465;42.686;23.364;2023-03-07T00:59:19;19.27;;;11.05;;
20611;SDS011;10465;42.686;23.364;2023-03-07T01:01:44;16.38;;;10.07;;
20611;SDS011;10465;42.686;23.364;2023-03-07T01:04:10;15.05;;;9.35;;
20611;SDS011;10465;42.686;23.364;2023-03-07T01:06:35;17.75;;;10.13;;
20611;SDS011;10465;42.686;23.364;2023-03-07T01:09:02;15.63;;;9.50;;
20611;SDS011;10465;42.686;23.364;2023-03-07T01:11:31;15.48;;;9.50;;
20611;SDS011;10465;42.686;23.364;2023-03-07T01:13:58;13.20;;;9.25;;
20611;SDS011;10465;42.686;23.364;2023-03-07T01:16:26;13.73;;;8.45;;
20611;SDS011;10465;42.686;23.364;2023-03-07T01:18:55;14.85;;;8.88;;
20611;SDS011;10465;42.686;23.364;2023-03-07T01:23:51;16.88;;;8.95;;
20611;SDS011;10465;42.686;23.364;2023-03-07T01:26:21;15.30;;;8.52;;
20611;SDS011;10465;42.686;23.364;2023-03-07T01:28:49;12.60;;;8.10;;
20611;SDS011;10465;42.686;23.364;2023-03-07T01:31:16;12.85;;;8.15;;
20611;SDS011;10465;42.686;23.364;2023-03-07T01:33:42;14.20;;;8.52;;
20611;SDS011;10465;42.686;23.364;2023-03-07T01:36:23;13.98;;;8.50;;
20611;SDS011;10465;42.686;23.364;2023-03-07T01:38:54;14.13;;;8.27;;
20611;SDS011;10465;42.686;23.364;2023-03-07T01:41:21;19.25;;;8.80;;
20611;SDS011;10465;42.686;23.364;2023-03-07T01:43:46;13.05;;;8.52;;
20611;SDS011;10465;42.686;23.364;2023-03-07T01:51:10;12.55;;;7.47;;
20611;SDS011;10465;42.686;23.364;2023-03-07T01:53:35;12.60;;;7.88;;
20611;SDS011;10465;42.686;23.364;2023-03-07T01:56:01;12.55;;;8.00;;
20611;SDS011;10465;42.686;23.364;2023-03-07T01:58:27;16.02;;;7.88;;
20611;SDS011;10465;42.686;23.364;2023-03-07T02:00:53;11.88;;;8.00;;
20611;SDS011;10465;42.686;23.364;2023-03-07T02:03:29;11.98;;;7.80;;
20611;SDS011;10465;42.686;23.364;2023-03-07T02:06:01;11.55;;;7.60;;
20611;SDS011;10465;42.686;23.364;2023-03-07T02:08:31;13.23;;;8.00;;
20611;SDS011;10465;42.686;23.364;2023-03-07T02:10:59;16.88;;;11.00;;
20611;SDS011;10465;42.686;23.364;2023-03-07T02:13:24;12.27;;;8.82;;
20611;SDS011;10465;42.686;23.364;2023-03-07T02:15:50;13.45;;;8.15;;
20611;SDS011;10465;42.686;23.364;2023-03-07T02:18:17;15.18;;;8.75;;
20611;SDS011;10465;42.686;23.364;2023-03-07T02:20:50;12.13;;;8.23;;
20611;SDS011;10465;42.686;23.364;2023-03-07T02:28:42;11.18;;;7.70;;
20611;SDS011;10465;42.686;23.364;2023-03-07T02:31:09;16.20;;;8.45;;
20611;SDS011;10465;42.686;23.364;2023-03-07T02:33:35;13.43;;;8.77;;
20611;SDS011;10465;42.686;23.364;2023-03-07T02:36:03;11.93;;;8.13;;
20611;SDS011;10465;42.686;23.364;2023-03-07T02:38:32;12.63;;;8.23;;
20611;SDS011;10465;42.686;23.364;2023-03-07T02:41:02;14.20;;;8.38;;
20611;SDS011;10465;42.686;23.364;2023-03-07T02:43:28;15.57;;;8.35;;
20611;SDS011;10465;42.686;23.364;2023-03-07T02:45:54;12.48;;;8.60;;
20611;SDS011;10465;42.686;23.364;2023-03-07T02:48:19;11.43;;;8.30;;
20611;SDS011;10465;42.686;23.364;2023-03-07T02:50:46;12.52;;;8.80;;
20611;SDS011;10465;42.686;23.364;2023-03-07T02:53:12;14.82;;;8.50;;
20611;SDS011;10465;42.686;23.364;2023-03-07T02:55:38;13.30;;;8.40;;
20611;SDS011;10465;42.686;23.364;2023-03-07T02:58:03;13.15;;;8.77;;
20611;SDS011;10465;42.686;23.364;2023-03-07T03:00:29;13.52;;;8.18;;
20611;SDS011;10465;42.686;23.364;2023-03-07T03:02:55;14.13;;;8.43;;
20611;SDS011;10465;42.686;23.364;2023-03-07T03:05:20;15.38;;;8.43;;
20611;SDS011;10465;42.686;23.364;2023-03-07T03:07:46;12.52;;;7.88;;
20611;SDS011;10465;42.686;23.364;2023-03-07T03:10:12;15.50;;;8.13;;
20611;SDS011;10465;42.686;23.364;2023-03-07T03:12:38;14.60;;;8.27;;
20611;SDS011;10465;42.686;23.364;2023-03-07T03:15:03;11.43;;;8.18;;
20611;SDS011;10465;42.686;23.364;2023-03-07T03:17:29;12.00;;;8.00;;
20611;SDS011;10465;42.686;23.364;2023-03-07T03:19:55;12.45;;;8.63;;
20611;SDS011;10465;42.686;23.364;2023-03-07T03:22:20;12.57;;;7.30;;
20611;SDS011;10465;42.686;23.364;2023-03-07T03:24:46;12.88;;;8.18;;
20611;SDS011;10465;42.686;23.364;2023-03-07T03:27:11;12.32;;;8.10;;
20611;SDS011;10465;42.686;23.364;2023-03-07T03:29:37;13.13;;;8.63;;
20611;SDS011;10465;42.686;23.364;2023-03-07T03:32:03;16.27;;;8.27;;
20611;SDS011;10465;42.686;23.364;2023-03-07T03:34:28;16.20;;;8.48;;
20611;SDS011;10465;42.686;23.364;2023-03-07T03:36:54;12.98;;;8.20;;
20611;SDS011;10465;42.686;23.364;2023-03-07T03:39:19;11.05;;;8.30;;
20611;SDS011;10465;42.686;23.364;2023-03-07T03:41:45;12.32;;;8.43;;
20611;SDS011;10465;42.686;23.364;2023-03-07T03:44:10;14.05;;;8.02;;
20611;SDS011;10465;42.686;23.364;2023-03-07T03:46:35;15.73;;;8.90;;
20611;SDS011;10465;42.686;23.364;2023-03-07T03:49:01;12.23;;;7.95;;
20611;SDS011;10465;42.686;23.364;2023-03-07T03:51:27;14.85;;;9.05;;
20611;SDS011;10465;42.686;23.364;2023-03-07T03:53:53;11.15;;;7.97;;
20611;SDS011;10465;42.686;23.364;2023-03-07T03:56:20;11.52;;;7.40;;
20611;SDS011;10465;42.686;23.364;2023-03-07T03:58:47;17.02;;;8.60;;
20611;SDS011;10465;42.686;23.364;2023-03-07T04:01:15;14.18;;;8.18;;
20611;SDS011;10465;42.686;23.364;2023-03-07T04:03:46;13.27;;;8.52;;
20611;SDS011;10465;42.686;23.364;2023-03-07T04:06:14;14.60;;;9.23;;
20611;SDS011;10465;42.686;23.364;2023-03-07T04:08:42;16.95;;;8.65;;
20611;SDS011;10465;42.686;23.364;2023-03-07T04:11:10;12.75;;;7.68;;
20611;SDS011;10465;42.686;23.364;2023-03-07T04:13:36;13.63;;;8.48;;
20611;SDS011;10465;42.686;23.364;2023-03-07T04:16:01;15.25;;;8.68;;
20611;SDS011;10465;42.686;23.364;2023-03-07T04:18:27;15.95;;;8.60;;
20611;SDS011;10465;42.686;23.364;2023-03-07T04:20:52;13.35;;;8.88;;
20611;SDS011;10465;42.686;23.364;2023-03-07T04:23:18;19.38;;;10.30;;
20611;SDS011;10465;42.686;23.364;2023-03-07T04:25:49;17.30;;;10.35;;
20611;SDS011;10465;42.686;23.364;2023-03-07T04:28:19;18.23;;;10.05;;
20611;SDS011;10465;42.686;23.364;2023-03-07T04:30:46;16.42;;;9.93;;
20611;SDS011;10465;42.686;23.364;2023-03-07T04:33:14;19.08;;;9.77;;
20611;SDS011;10465;42.686;23.364;2023-03-07T04:35:40;19.00;;;10.48;;
20611;SDS011;10465;42.686;23.364;2023-03-07T04:38:07;17.83;;;10.32;;
20611;SDS011;10465;42.686;23.364;2023-03-07T04:40:33;17.27;;;10.68;;
20611;SDS011;10465;42.686;23.364;2023-03-07T04:42:59;14.43;;;9.88;;
20611;SDS011;10465;42.686;23.364;2023-03-07T04:45:25;17.80;;;10.32;;
20611;SDS011;10465;42.686;23.364;2023-03-07T04:47:51;17.92;;;11.43;;
20611;SDS011;10465;42.686;23.364;2023-03-07T04:50:17;20.20;;;12.23;;
20611;SDS011;10465;42.686;23.364;2023-03-07T04:52:44;17.73;;;11.85;;
20611;SDS011;10465;42.686;23.364;2023-03-07T04:55:10;17.90;;;11.52;;
20611;SDS011;10465;42.686;23.364;2023-03-07T04:57:35;19.20;;;11.55;;
20611;SDS011;10465;42.686;23.364;2023-03-07T05:00:01;20.98;;;11.20;;
20611;SDS011;10465;42.686;23.364;2023-03-07T05:02:27;18.90;;;11.98;;
20611;SDS011;10465;42.686;23.364;2023-03-07T05:04:53;19.38;;;11.70;;
20611;SDS011;10465;42.686;23.364;2023-03-07T05:07:19;16.67;;;10.82;;
20611;SDS011;10465;42.686;23.364;2023-03-07T05:09:44;17.80;;;11.18;;
20611;SDS011;10465;42.686;23.364;2023-03-07T05:12:10;16.10;;;11.50;;
20611;SDS011;10465;42.686;23.364;2023-03-07T05:14:35;18.20;;;11.15;;
20611;SDS011;10465;42.686;23.364;2023-03-07T05:17:01;19.40;;;11.48;;
20611;SDS011;10465;42.686;23.364;2023-03-07T05:19:26;17.77;;;10.60;;
20611;SDS011;10465;42.686;23.364;2023-03-07T05:21:51;18.65;;;12.40;;
20611;SDS011;10465;42.686;23.364;2023-03-07T05:24:17;18.10;;;11.25;;
20611;SDS011;10465;42.686;23.364;2023-03-07T05:26:44;19.58;;;11.02;;
20611;SDS011;10465;42.686;23.364;2023-03-07T05:29:09;20.95;;;12.00;;
20611;SDS011;10465;42.686;23.364;2023-03-07T05:31:34;20.80;;;12.73;;
20611;SDS011;10465;42.686;23.364;2023-03-07T05:34:00;23.50;;;11.35;;
20611;SDS011;10465;42.686;23.364;2023-03-07T05:36:26;21.98;;;11.65;;
20611;SDS011;10465;42.686;23.364;2023-03-07T05:38:52;16.85;;;10.82;;
20611;SDS011;10465;42.686;23.364;2023-03-07T05:41:20;18.23;;;11.00;;
20611;SDS011;10465;42.686;23.364;2023-03-07T05:43:46;20.77;;;12.20;;
20611;SDS011;10465;42.686;23.364;2023-03-07T05:46:11;16.50;;;10.65;;
20611;SDS011;10465;42.686;23.364;2023-03-07T05:48:36;18.40;;;11.20;;
20611;SDS011;10465;42.686;23.364;2023-03-07T05:51:02;17.40;;;11.02;;
20611;SDS011;10465;42.686;23.364;2023-03-07T05:53:27;17.27;;;10.55;;
20611;SDS011;10465;42.686;23.364;2023-03-07T05:55:53;16.63;;;9.70;;
20611;SDS011;10465;42.686;23.364;2023-03-07T05:58:18;22.00;;;10.75;;
20611;SDS011;10465;42.686;23.364;2023-03-07T06:00:43;17.88;;;10.00;;
20611;SDS011;10465;42.686;23.364;2023-03-07T06:03:09;18.98;;;10.77;;
20611;SDS011;10465;42.686;23.364;2023-03-07T06:05:34;21.38;;;10.52;;
20611;SDS011;10465;42.686;23.364;2023-03-07T06:08:00;18.05;;;10.85;;
20611;SDS011;10465;42.686;23.364;2023-03-07T06:10:25;18.70;;;11.68;;
20611;SDS011;10465;42.686;23.364;2023-03-07T06:12:54;20.88;;;10.07;;
20611;SDS011;10465;42.686;23.364;2023-03-07T06:15:20;17.77;;;10.35;;
20611;SDS011;10465;42.686;23.364;2023-03-07T06:17:46;18.65;;;10.02;;
20611;SDS011;10465;42.686;23.364;2023-03-07T06:20:12;17.85;;;10.85;;
20611;SDS011;10465;42.686;23.364;2023-03-07T06:22:38;19.30;;;9.73;;
20611;SDS011;10465;42.686;23.364;2023-03-07T06:25:04;15.43;;;9.57;;
20611;SDS011;10465;42.686;23.364;2023-03-07T06:27:31;17.90;;;11.80;;
20611;SDS011;10465;42.686;23.364;2023-03-07T06:30:01;16.70;;;10.35;;
20611;SDS011;10465;42.686;23.364;2023-03-07T06:32:29;19.63;;;10.93;;
20611;SDS011;10465;42.686;23.364;2023-03-07T06:34:54;18.17;;;9.75;;
20611;SDS011;10465;42.686;23.364;2023-03-07T06:37:20;18.38;;;10.20;;
20611;SDS011;10465;42.686;23.364;2023-03-07T06:39:45;16.05;;;10.10;;
20611;SDS011;10465;42.686;23.364;2023-03-07T06:42:11;15.63;;;10.38;;
20611;SDS011;10465;42.686;23.364;2023-03-07T06:44:36;13.63;;;9.15;;
20611;SDS011;10465;42.686;23.364;2023-03-07T06:47:02;16.98;;;10.93;;
20611;SDS011;10465;42.686;23.364;2023-03-07T06:49:28;16.95;;;9.68;;
20611;SDS011;10465;42.686;23.364;2023-03-07T06:51:53;16.98;;;10.73;;
20611;SDS011;10465;42.686;23.364;2023-03-07T06:54:19;17.10;;;11.88;;
20611;SDS011;10465;42.686;23.364;2023-03-07T06:56:44;19.20;;;10.93;;
20611;SDS011;10465;42.686;23.364;2023-03-07T06:59:10;17.08;;;10.63;;
20611;SDS011;10465;42.686;23.364;2023-03-07T07:01:35;17.33;;;9.70;;
20611;SDS011;10465;42.686;23.364;2023-03-07T07:04:01;15.35;;;9.45;;
20611;SDS011;10465;42.686;23.364;2023-03-07T07:06:27;14.52;;;8.95;;
20611;SDS011;10465;42.686;23.364;2023-03-07T07:08:53;13.95;;;8.75;;
20611;SDS011;10465;42.686;23.364;2023-03-07T07:11:20;16.65;;;9.65;;
20611;SDS011;10465;42.686;23.364;2023-03-07T07:13:45;14.02;;;9.88;;
20611;SDS011;10465;42.686;23.364;2023-03-07T07:16:11;14.57;;;8.70;;
20611;SDS011;10465;42.686;23.364;2023-03-07T07:18:37;15.40;;;9.23;;
20611;SDS011;10465;42.686;23.364;2023-03-07T07:21:02;13.23;;;8.05;;
20611;SDS011;10465;42.686;23.364;2023-03-07T07:23:29;13.18;;;8.00;;
20611;SDS011;10465;42.686;23.364;2023-03-07T07:25:55;10.43;;;7.30;;
20611;SDS011;10465;42.686;23.364;2023-03-07T07:28:21;11.32;;;7.07;;
20611;SDS011;10465;42.686;23.364;2023-03-07T07:30:49;12.85;;;7.80;;
20611;SDS011;10465;42.686;23.364;2023-03-07T07:33:15;12.13;;;8.23;;
20611;SDS011;10465;42.686;23.364;2023-03-07T07:35:44;12.63;;;7.78;;
20611;SDS011;10465;42.686;23.364;2023-03-07T07:38:10;13.57;;;8.00;;
20611;SDS011;10465;42.686;23.364;2023-03-07T07:40:36;13.73;;;8.32;;
20611;SDS011;10465;42.686;23.364;2023-03-07T07:43:01;11.30;;;7.82;;
20611;SDS011;10465;42.686;23.364;2023-03-07T07:45:27;15.93;;;9.77;;
20611;SDS011;10465;42.686;23.364;2023-03-07T07:47:52;12.48;;;8.13;;
20611;SDS011;10465;42.686;23.364;2023-03-07T07:50:18;11.35;;;7.82;;
20611;SDS011;10465;42.686;23.364;2023-03-07T07:52:45;11.73;;;7.72;;
20611;SDS011;10465;42.686;23.364;2023-03-07T07:55:11;12.18;;;7.85;;
20611;SDS011;10465;42.686;23.364;2023-03-07T07:57:38;14.18;;;8.18;;
20611;SDS011;10465;42.686;23.364;2023-03-07T08:00:07;13.32;;;8.27;;
20611;SDS011;10465;42.686;23.364;2023-03-07T08:02:34;11.82;;;8.13;;
20611;SDS011;10465;42.686;23.364;2023-03-07T08:05:00;13.73;;;8.57;;
20611;SDS011;10465;42.686;23.364;2023-03-07T08:07:26;12.50;;;7.90;;
20611;SDS011;10465;42.686;23.364;2023-03-07T08:09:51;17.52;;;7.93;;
20611;SDS011;10465;42.686;23.364;2023-03-07T08:12:17;15.02;;;8.38;;
20611;SDS011;10465;42.686;23.364;2023-03-07T08:14:43;13.45;;;8.80;;
20611;SDS011;10465;42.686;23.364;2023-03-07T08:17:08;15.15;;;9.80;;
20611;SDS011;10465;42.686;23.364;2023-03-07T08:19:33;14.18;;;7.90;;
20611;SDS011;10465;42.686;23.364;2023-03-07T08:21:59;13.07;;;9.38;;
20611;SDS011;10465;42.686;23.364;2023-03-07T08:24:25;17.08;;;10.90;;
20611;SDS011;10465;42.686;23.364;2023-03-07T08:26:51;18.33;;;11.05;;
20611;SDS011;10465;42.686;23.364;2023-03-07T08:29:16;16.58;;;9.30;;
20611;SDS011;10465;42.686;23.364;2023-03-07T08:31:43;19.15;;;9.25;;
20611;SDS011;10465;42.686;23.364;2023-03-07T08:34:15;14.98;;;8.63;;
20611;SDS011;10465;42.686;23.364;2023-03-07T08:36:40;13.60;;;7.80;;
20611;SDS011;10465;42.686;23.364;2023-03-07T08:39:06;14.27;;;8.23;;
20611;SDS011;10465;42.686;23.364;2023-03-07T08:41:31;10.25;;;7.75;;
20611;SDS011;10465;42.686;23.364;2023-03-07T08:43:57;11.85;;;7.90;;
20611;SDS011;10465;42.686;23.364;2023-03-07T08:46:22;13.75;;;8.23;;
20611;SDS011;10465;42.686;23.364;2023-03-07T08:48:48;13.30;;;8.15;;
20611;SDS011;10465;42.686;23.364;2023-03-07T08:51:14;18.50;;;8.27;;
20611;SDS011;10465;42.686;23.364;2023-03-07T08:53:41;17.23;;;8.65;;
20611;SDS011;10465;42.686;23.364;2023-03-07T08:56:07;12.73;;;8.77;;
20611;SDS011;10465;42.686;23.364;2023-03-07T08:58:35;13.88;;;8.27;;
20611;SDS011;10465;42.686;23.364;2023-03-07T09:01:01;10.75;;;8.25;;
20611;SDS011;10465;42.686;23.364;2023-03-07T09:03:28;12.68;;;8.13;;
20611;SDS011;10465;42.686;23.364;2023-03-07T09:05:53;16.48;;;8.85;;
20611;SDS011;10465;42.686;23.364;2023-03-07T09:08:19;9.95;;;7.72;;
20611;SDS011;10465;42.686;23.364;2023-03-07T09:10:44;13.77;;;8.68;;
20611;SDS011;10465;42.686;23.364;2023-03-07T09:13:10;13.30;;;8.25;;
20611;SDS011;10465;42.686;23.364;2023-03-07T09:15:39;10.02;;;6.28;;
20611;SDS011;10465;42.686;23.364;2023-03-07T09:18:06;9.43;;;6.20;;
20611;SDS011;10465;42.686;23.364;2023-03-07T09:20:32;9.60;;;6.18;;
20611;SDS011;10465;42.686;23.364;2023-03-07T09:22:58;10.10;;;5.95;;
20611;SDS011;10465;42.686;23.364;2023-03-07T09:25:23;7.00;;;4.72;;
20611;SDS011;10465;42.686;23.364;2023-03-07T09:27:49;6.63;;;4.57;;
20611;SDS011;10465;42.686;23.364;2023-03-07T09:30:16;10.80;;;5.18;;
20611;SDS011;10465;42.686;23.364;2023-03-07T09:32:42;7.45;;;5.00;;
20611;SDS011;10465;42.686;23.364;2023-03-07T09:35:07;8.35;;;5.20;;
20611;SDS011;10465;42.686;23.364;2023-03-07T09:37:34;8.20;;;6.05;;
20611;SDS011;10465;42.686;23.364;2023-03-07T09:39:59;8.60;;;5.50;;
20611;SDS011;10465;42.686;23.364;2023-03-07T09:42:27;12.00;;;5.95;;
20611;SDS011;10465;42.686;23.364;2023-03-07T09:50:15;8.93;;;5.43;;
20611;SDS011;10465;42.686;23.364;2023-03-07T09:52:47;6.82;;;5.30;;
20611;SDS011;10465;42.686;23.364;2023-03-07T09:55:15;9.75;;;6.18;;
20611;SDS011;10465;42.686;23.364;2023-03-07T09:57:49;9.23;;;5.75;;
20611;SDS011;10465;42.686;23.364;2023-03-07T10:00:29;7.57;;;5.45;;
20611;SDS011;10465;42.686;23.364;2023-03-07T10:03:06;7.95;;;5.13;;
20611;SDS011;10465;42.686;23.364;2023-03-07T10:05:49;8.95;;;5.10;;
20611;SDS011;10465;42.686;23.364;2023-03-07T10:08:19;7.00;;;4.95;;
20611;SDS011;10465;42.686;23.364;2023-03-07T10:10:58;8.18;;;5.32;;
20611;SDS011;10465;42.686;23.364;2023-03-07T10:16:45;6.82;;;4.90;;
20611;SDS011;10465;42.686;23.364;2023-03-07T10:27:52;7.25;;;4.60;;
20611;SDS011;10465;42.686;23.364;2023-03-07T10:30:34;8.48;;;4.30;;
20611;SDS011;10465;42.686;23.364;2023-03-07T10:33:00;6.70;;;4.65;;
20611;SDS011;10465;42.686;23.364;2023-03-07T10:36:02;7.32;;;5.47;;
20611;SDS011;10465;42.686;23.364;2023-03-07T10:38:42;6.78;;;5.22;;
20611;SDS011;10465;42.686;23.364;2023-03-07T10:41:13;8.45;;;4.57;;
20611;SDS011;10465;42.686;23.364;2023-03-07T10:43:40;7.15;;;4.95;;
20611;SDS011;10465;42.686;23.364;2023-03-07T10:46:18;7.35;;;4.53;;
20611;SDS011;10465;42.686;23.364;2023-03-07T10:48:52;6.63;;;4.53;;
20611;SDS011;10465;42.686;23.364;2023-03-07T10:53:57;12.05;;;5.20;;
20611;SDS011;10465;42.686;23.364;2023-03-07T10:56:24;7.43;;;4.65;;
20611;SDS011;10465;42.686;23.364;2023-03-07T10:59:05;6.40;;;4.72;;
20611;SDS011;10465;42.686;23.364;2023-03-07T11:01:37;6.18;;;3.78;;
20611;SDS011;10465;42.686;23.364;2023-03-07T11:04:22;4.20;;;3.38;;
20611;SDS011;10465;42.686;23.364;2023-03-07T11:06:55;6.40;;;3.80;;
20611;SDS011;10465;42.686;23.364;2023-03-07T11:09:32;7.50;;;3.75;;
20611;SDS011;10465;42.686;23.364;2023-03-07T11:12:10;5.78;;;3.40;;
20611;SDS011;10465;42.686;23.364;2023-03-07T11:15:17;7.20;;;3.28;;
20611;SDS011;10465;42.686;23.364;2023-03-07T11:17:40;4.70;;;2.70;;
20611;SDS011;10465;42.686;23.364;2023-03-07T11:22:50;4.50;;;2.88;;
20611;SDS011;10465;42.686;23.364;2023-03-07T11:25:34;2.17;;;1.98;;
20611;SDS011;10465;42.686;23.364;2023-03-07T11:28:00;4.05;;;2.42;;
20611;SDS011;10465;42.686;23.364;2023-03-07T11:33:07;2.50;;;1.90;;
20611;SDS011;10465;42.686;23.364;2023-03-07T11:38:24;4.75;;;2.70;;
20611;SDS011;10465;42.686;23.364;2023-03-07T11:40:55;5.68;;;2.35;;
20611;SDS011;10465;42.686;23.364;2023-03-07T11:48:33;4.82;;;1.80;;
20611;SDS011;10465;42.686;23.364;2023-03-07T11:51:28;3.20;;;2.47;;
20611;SDS011;10465;42.686;23.364;2023-03-07T11:56:33;2.25;;;1.85;;
20611;SDS011;10465;42.686;23.364;2023-03-07T12:02:06;4.80;;;2.85;;
20611;SDS011;10465;42.686;23.364;2023-03-07T12:05:04;3.90;;;2.22;;
20611;SDS011;10465;42.686;23.364;2023-03-07T12:07:56;2.47;;;1.92;;
20611;SDS011;10465;42.686;23.364;2023-03-07T12:22:02;2.00;;;1.60;;
20611;SDS011;10465;42.686;23.364;2023-03-07T12:24:45;2.03;;;1.60;;
20611;SDS011;10465;42.686;23.364;2023-03-07T12:30:06;2.58;;;1.27;;
20611;SDS011;10465;42.686;23.364;2023-03-07T12:32:40;2.95;;;1.27;;
20611;SDS011;10465;42.686;23.364;2023-03-07T12:37:57;1.85;;;1.52;;
20611;SDS011;10465;42.686;23.364;2023-03-07T12:40:44;2.20;;;1.52;;
20611;SDS011;10465;42.686;23.364;2023-03-07T12:43:19;1.50;;;1.30;;
20611;SDS011;10465;42.686;23.364;2023-03-07T12:45:52;4.30;;;1.83;;
20611;SDS011;10465;42.686;23.364;2023-03-07T12:48:39;3.30;;;1.50;;
20611;SDS011;10465;42.686;23.364;2023-03-07T12:51:23;1.73;;;1.30;;
20611;SDS011;10465;42.686;23.364;2023-03-07T12:59:10;2.05;;;1.60;;
20611;SDS011;10465;42.686;23.364;2023-03-07T13:01:39;2.65;;;1.17;;
20611;SDS011;10465;42.686;23.364;2023-03-07T13:06:59;1.38;;;1.27;;
20611;SDS011;10465;42.686;23.364;2023-03-07T13:09:31;1.70;;;1.20;;
20611;SDS011;10465;42.686;23.364;2023-03-07T13:14:54;1.50;;;0.98;;
20611;SDS011;10465;42.686;23.364;2023-03-07T13:19:59;1.75;;;1.40;;
20611;SDS011;10465;42.686;23.364;2023-03-07T13:24:56;2.40;;;1.60;;
20611;SDS011;10465;42.686;23.364;2023-03-07T13:30:20;1.70;;;1.30;;
20611;SDS011;10465;42.686;23.364;2023-03-07T13:40:23;1.67;;;1.30;;
20611;SDS011;10465;42.686;23.364;2023-03-07T13:55:46;3.67;;;1.90;;
20611;SDS011;10465;42.686;23.364;2023-03-07T13:58:35;3.13;;;1.80;;
20611;SDS011;10465;42.686;23.364;2023-03-07T14:01:20;3.55;;;2.08;;
20611;SDS011;10465;42.686;23.364;2023-03-07T14:03:50;3.05;;;1.85;;
20611;SDS011;10465;42.686;23.364;2023-03-07T14:06:19;5.40;;;1.60;;
20611;SDS011;10465;42.686;23.364;2023-03-07T14:08:47;3.47;;;1.80;;
20611;SDS011;10465;42.686;23.364;2023-03-07T14:11:58;2.10;;;1.70;;
20611;SDS011;10465;42.686;23.364;2023-03-07T14:14:21;2.53;;;1.55;;
20611;SDS011;10465;42.686;23.364;2023-03-07T14:27:32;3.47;;;1.88;;
20611;SDS011;10465;42.686;23.364;2023-03-07T14:30:22;5.63;;;1.83;;
20611;SDS011;10465;42.686;23.364;2023-03-07T14:32:50;1.88;;;1.45;;
20611;SDS011;10465;42.686;23.364;2023-03-07T14:35:31;2.28;;;1.63;;
20611;SDS011;10465;42.686;23.364;2023-03-07T14:37:58;3.50;;;1.98;;
20611;SDS011;10465;42.686;23.364;2023-03-07T14:51:27;2.50;;;1.80;;
20611;SDS011;10465;42.686;23.364;2023-03-07T14:53:54;3.97;;;1.70;;
20611;SDS011;10465;42.686;23.364;2023-03-07T14:56:21;2.78;;;1.55;;
20611;SDS011;10465;42.686;23.364;2023-03-07T14:58:51;3.20;;;1.75;;
20611;SDS011;10465;42.686;23.364;2023-03-07T15:01:26;2.60;;;1.50;;
20611;SDS011;10465;42.686;23.364;2023-03-07T15:03:55;2.92;;;1.98;;
20611;SDS011;10465;42.686;23.364;2023-03-07T15:06:22;3.30;;;1.80;;
20611;SDS011;10465;42.686;23.364;2023-03-07T15:08:50;2.17;;;1.67;;
20611;SDS011;10465;42.686;23.364;2023-03-07T15:18:53;3.60;;;2.20;;
20611;SDS011;10465;42.686;23.364;2023-03-07T15:21:23;2.47;;;1.70;;
20611;SDS011;10465;42.686;23.364;2023-03-07T15:23:55;3.38;;;1.83;;
20611;SDS011;10465;42.686;23.364;2023-03-07T15:26:25;2.80;;;2.03;;
20611;SDS011;10465;42.686;23.364;2023-03-07T15:28:58;2.85;;;1.75;;
20611;SDS011;10465;42.686;23.364;2023-03-07T15:31:29;5.03;;;2.28;;
20611;SDS011;10465;42.686;23.364;2023-03-07T15:34:08;4.05;;;1.98;;
20611;SDS011;10465;42.686;23.364;2023-03-07T15:36:35;4.00;;;2.15;;
20611;SDS011;10465;42.686;23.364;2023-03-07T15:42:25;2.50;;;1.90;;
20611;SDS011;10465;42.686;23.364;2023-03-07T15:44:51;1.70;;;1.60;;
20611;SDS011;10465;42.686;23.364;2023-03-07T15:47:20;2.70;;;1.73;;
20611;SDS011;10465;42.686;23.364;2023-03-07T15:49:50;5.57;;;1.80;;
20611;SDS011;10465;42.686;23.364;2023-03-07T15:52:29;2.88;;;1.45;;
20611;SDS011;10465;42.686;23.364;2023-03-07T15:55:01;2.97;;;2.10;;
20611;SDS011;10465;42.686;23.364;2023-03-07T15:57:36;3.25;;;1.73;;
20611;SDS011;10465;42.686;23.364;2023-03-07T16:04:55;2.97;;;1.88;;
20611;SDS011;10465;42.686;23.364;2023-03-07T16:07:21;4.45;;;2.00;;
20611;SDS011;10465;42.686;23.364;2023-03-07T16:09:46;4.03;;;1.95;;
20611;SDS011;10465;42.686;23.364;2023-03-07T16:12:12;5.57;;;2.33;;
20611;SDS011;10465;42.686;23.364;2023-03-07T16:14:39;3.00;;;2.08;;
20611;SDS011;10465;42.686;23.364;2023-03-07T16:17:19;2.90;;;2.00;;
20611;SDS011;10465;42.686;23.364;2023-03-07T16:19:50;2.97;;;2.03;;
20611;SDS011;10465;42.686;23.364;2023-03-07T16:22:16;3.22;;;2.15;;
20611;SDS011;10465;42.686;23.364;2023-03-07T16:24:43;3.55;;;2.40;;
20611;SDS011;10465;42.686;23.364;2023-03-07T16:27:18;3.33;;;2.40;;
20611;SDS011;10465;42.686;23.364;2023-03-07T16:29:45;4.07;;;2.28;;
20611;SDS011;10465;42.686;23.364;2023-03-07T16:32:12;3.35;;;2.13;;
20611;SDS011;10465;42.686;23.364;2023-03-07T16:34:39;3.88;;;1.83;;
20611;SDS011;10465;42.686;23.364;2023-03-07T16:37:05;6.43;;;2.38;;
20611;SDS011;10465;42.686;23.364;2023-03-07T16:39:31;2.28;;;2.08;;
20611;SDS011;10465;42.686;23.364;2023-03-07T16:41:56;3.05;;;2.20;;
20611;SDS011;10465;42.686;23.364;2023-03-07T16:44:22;4.38;;;2.40;;
20611;SDS011;10465;42.686;23.364;2023-03-07T16:49:29;3.88;;;2.22;;
20611;SDS011;10465;42.686;23.364;2023-03-07T16:51:54;3.92;;;2.33;;
20611;SDS011;10465;42.686;23.364;2023-03-07T16:54:20;4.93;;;2.33;;
20611;SDS011;10465;42.686;23.364;2023-03-07T16:56:46;2.67;;;2.15;;
20611;SDS011;10465;42.686;23.364;2023-03-07T16:59:17;4.72;;;2.40;;